Time;durP1;ratioP1;P1;durP2;ratioP2;P2;SDS_P1;SDS_P2;PMS_P1;PMS_P2;Temp;Humidity;BMP_temperature;BMP_pressure;BME280_temperature;BME280_humidity;BME280_pressure;Samples;Min_cycle;Max_cycle;Signal;HPM_P1;HPM_P2
2023/01/02 00:01:24;;;;;;;;;8.75;8.50;;;;;;;;5114959;27;8808;-67
2023/01/02 00:03:49;;;;;;;;;10.25;9.25;;;;;;;;5114018;27;8818;-67
2023/01/02 00:06:16;;;;;;;;;9.00;7.00;;;;;;;;5114335;28;8768;-67
2023/01/02 00:08:41;;;;;;;;;13.40;10.40;;;;;;;;5113894;28;8808;-67
2023/01/02 00:11:07;;;;;;;;;9.00;8.25;;;;;;;;5114144;28;9613;-67
2023/01/02 00:13:32;;;;;;;;;8.25;8.25;;;;;;;;5114124;28;8784;-67
2023/01/02 00:15:57;;;;;;;;;12.00;9.00;;;;;;;;5114016;28;8816;-67
2023/01/02 00:18:22;;;;;;;;;10.25;8.25;;;;;;;;5107982;27;8791;-66
2023/01/02 00:20:47;;;;;;;;;9.25;8.75;;;;;;;;5114121;27;8791;-67
2023/01/02 00:23:13;;;;;;;;;10.75;9.50;;;;;;;;5112956;27;8820;-67
2023/01/02 00:25:38;;;;;;;;;13.25;9.00;;;;;;;;5112989;27;8879;-67
2023/01/02 00:28:03;;;;;;;;;11.25;8.75;;;;;;;;5113682;28;9500;-67
2023/01/02 00:30:28;;;;;;;;;9.00;7.00;;;;;;;;5108473;27;8838;-67
2023/01/02 00:32:54;;;;;;;;;7.25;6.00;;;;;;;;5094139;27;8822;-66
2023/01/02 00:35:19;;;;;;;;;12.75;9.00;;;;;;;;5101768;27;8825;-67
2023/01/02 00:37:44;;;;;;;;;8.25;5.75;;;;;;;;5113861;28;8798;-67
2023/01/02 00:40:12;;;;;;;;;10.00;7.25;;;;;;;;5113495;28;8815;-67
2023/01/02 00:42:41;;;;;;;;;7.40;6.20;;;;;;;;5113878;28;8773;-67
2023/01/02 00:45:06;;;;;;;;;6.00;6.00;;;;;;;;5113578;28;8887;-67
2023/01/02 00:47:32;;;;;;;;;9.75;7.50;;;;;;;;5112819;27;8923;-67
2023/01/02 00:49:57;;;;;;;;;11.25;6.50;;;;;;;;5113602;28;8843;-67
2023/01/02 00:52:22;;;;;;;;;4.25;4.25;;;;;;;;5106310;27;8828;-67
2023/01/02 00:54:47;;;;;;;;;12.00;7.00;;;;;;;;5093102;28;8807;-67
2023/01/02 00:57:12;;;;;;;;;7.50;5.75;;;;;;;;5092993;28;8860;-67
2023/01/02 00:59:38;;;;;;;;;9.75;6.75;;;;;;;;5092934;28;8814;-67
2023/01/02 01:02:03;;;;;;;;;6.50;6.00;;;;;;;;5094242;27;8921;-67
2023/01/02 01:04:31;;;;;;;;;0.00;0.00;;;;;;;;5103336;27;9642;-67
2023/01/02 01:06:56;;;;;;;;;7.80;6.60;;;;;;;;5113341;28;8765;-67
2023/01/02 01:09:21;;;;;;;;;7.50;6.00;;;;;;;;5105501;27;8872;-67
2023/01/02 01:11:46;;;;;;;;;4.25;4.00;;;;;;;;5092453;28;8892;-67
2023/01/02 01:14:11;;;;;;;;;6.00;5.00;;;;;;;;5104096;28;8819;-67
2023/01/02 01:16:37;;;;;;;;;10.75;5.00;;;;;;;;5092701;28;8821;-67
2023/01/02 01:19:02;;;;;;;;;6.50;5.75;;;;;;;;5092855;28;8791;-67
2023/01/02 01:21:27;;;;;;;;;9.25;6.00;;;;;;;;5092644;28;8778;-67
2023/01/02 01:23:54;;;;;;;;;7.25;5.75;;;;;;;;5104020;27;8870;-67
2023/01/02 01:26:19;;;;;;;;;7.80;7.60;;;;;;;;5109736;28;8805;-67
2023/01/02 01:28:45;;;;;;;;;5.00;5.00;;;;;;;;5111855;27;8809;-67
2023/01/02 01:31:11;;;;;;;;;4.75;4.75;;;;;;;;5113172;28;8792;-67
2023/01/02 01:33:39;;;;;;;;;6.80;5.40;;;;;;;;5112797;28;8799;-67
2023/01/02 01:36:09;;;;;;;;;7.00;4.00;;;;;;;;5112686;28;8781;-67
2023/01/02 01:38:34;;;;;;;;;7.40;5.00;;;;;;;;5112215;28;8765;-67
2023/01/02 01:41:00;;;;;;;;;5.00;4.75;;;;;;;;5112723;28;8891;-67
2023/01/02 01:43:40;;;;;;;;;8.00;4.20;;;;;;;;5108363;27;8785;-67
2023/01/02 01:46:06;;;;;;;;;7.20;6.00;;;;;;;;5092348;28;9413;-67
2023/01/02 01:48:32;;;;;;;;;7.80;4.00;;;;;;;;5091969;28;8805;-67
2023/01/02 01:50:57;;;;;;;;;4.00;2.25;;;;;;;;5092173;27;8799;-67
2023/01/02 01:53:23;;;;;;;;;4.00;4.00;;;;;;;;5092290;28;8803;-67
2023/01/02 01:55:50;;;;;;;;;5.50;3.25;;;;;;;;5091941;28;8783;-67
2023/01/02 01:58:28;;;;;;;;;3.20;3.00;;;;;;;;5091789;28;9982;-67
2023/01/02 02:00:54;;;;;;;;;2.60;2.00;;;;;;;;5101324;27;8798;-67
2023/01/02 02:03:21;;;;;;;;;5.00;3.75;;;;;;;;5112483;28;8765;-67
2023/01/02 02:05:46;;;;;;;;;5.60;3.40;;;;;;;;5112496;28;9540;-67
2023/01/02 02:08:16;;;;;;;;;6.00;3.00;;;;;;;;5112314;28;8903;-67
2023/01/02 02:10:42;;;;;;;;;4.80;3.00;;;;;;;;5111974;28;8823;-67
2023/01/02 02:13:07;;;;;;;;;2.75;1.75;;;;;;;;5106323;27;8799;-67
2023/01/02 02:15:55;;;;;;;;;2.00;2.00;;;;;;;;5091757;28;8823;-67
2023/01/02 02:18:38;;;;;;;;;3.20;0.00;;;;;;;;5027760;28;8814;-67
2023/01/02 02:21:14;;;;;;;;;3.40;2.80;;;;;;;;5017555;28;8793;-67
2023/01/02 02:23:48;;;;;;;;;3.40;3.20;;;;;;;;5023570;28;8901;-67
2023/01/02 02:26:19;;;;;;;;;2.00;2.00;;;;;;;;5029284;28;8791;-67
2023/01/02 02:29:03;;;;;;;;;4.00;1.20;;;;;;;;5029072;28;8809;-67
2023/01/02 02:32:00;;;;;;;;;1.80;1.80;;;;;;;;5021066;28;8798;-67
2023/01/02 02:34:42;;;;;;;;;2.00;2.00;;;;;;;;5009397;28;8979;-67
2023/01/02 02:37:22;;;;;;;;;5.80;3.00;;;;;;;;5009352;28;8783;-67
2023/01/02 02:40:02;;;;;;;;;4.80;2.80;;;;;;;;5009253;28;8815;-67
2023/01/02 02:42:35;;;;;;;;;2.40;2.40;;;;;;;;5008097;28;8962;-67
2023/01/02 02:45:03;;;;;;;;;1.80;1.80;;;;;;;;5008594;28;8858;-67
2023/01/02 02:47:34;;;;;;;;;2.00;2.00;;;;;;;;5008505;28;8800;-66
2023/01/02 02:50:08;;;;;;;;;0.80;0.80;;;;;;;;5009114;28;8811;-67
2023/01/02 02:52:51;;;;;;;;;4.00;3.00;;;;;;;;5012286;28;8893;-67
2023/01/02 02:55:22;;;;;;;;;2.20;2.20;;;;;;;;5040252;28;8785;-67
2023/01/02 02:57:49;;;;;;;;;1.20;1.00;;;;;;;;5072386;28;8789;-67
2023/01/02 03:00:16;;;;;;;;;2.20;2.20;;;;;;;;5069414;28;8801;-67
2023/01/02 03:02:41;;;;;;;;;4.80;2.40;;;;;;;;5071476;28;8777;-67
2023/01/02 03:05:09;;;;;;;;;4.00;1.00;;;;;;;;5067953;28;8817;-67
2023/01/02 03:07:57;;;;;;;;;1.80;1.80;;;;;;;;5072276;28;8859;-67
2023/01/02 03:10:28;;;;;;;;;2.60;2.60;;;;;;;;5012005;28;8850;-67
2023/01/02 03:12:53;;;;;;;;;3.00;2.40;;;;;;;;5012542;28;8915;-67
2023/01/02 03:15:18;;;;;;;;;2.00;1.50;;;;;;;;5012485;28;8922;-67
2023/01/02 03:17:54;;;;;;;;;3.75;1.00;;;;;;;;5012670;28;8792;-67
2023/01/02 03:20:21;;;;;;;;;2.00;0.20;;;;;;;;5012373;28;8812;-67
2023/01/02 03:22:49;;;;;;;;;1.60;1.00;;;;;;;;5017093;28;8818;-67
2023/01/02 03:25:15;;;;;;;;;2.00;1.00;;;;;;;;5030365;28;8801;-67
2023/01/02 03:27:43;;;;;;;;;0.20;0.20;;;;;;;;5026805;28;8788;-67
2023/01/02 03:30:13;;;;;;;;;0.00;0.00;;;;;;;;5022029;28;8825;-67
2023/01/02 03:32:42;;;;;;;;;1.00;1.00;;;;;;;;5015037;28;8844;-67
2023/01/02 03:35:09;;;;;;;;;1.00;1.00;;;;;;;;5012026;28;8804;-67
2023/01/02 03:37:37;;;;;;;;;0.00;0.00;;;;;;;;5012827;28;8816;-67
2023/01/02 03:40:05;;;;;;;;;0.80;0.80;;;;;;;;5012101;28;8792;-67
2023/01/02 03:42:44;;;;;;;;;0.00;0.00;;;;;;;;5011874;28;8800;-67
2023/01/02 03:45:14;;;;;;;;;0.00;0.00;;;;;;;;5013566;28;8785;-67
2023/01/02 03:47:59;;;;;;;;;0.00;0.00;;;;;;;;5078329;28;8796;-67
2023/01/02 03:50:26;;;;;;;;;0.40;0.00;;;;;;;;5114677;27;8827;-67
2023/01/02 03:52:52;;;;;;;;;0.00;0.00;;;;;;;;5114223;27;8797;-67
2023/01/02 03:55:17;;;;;;;;;1.00;0.00;;;;;;;;5114576;28;8838;-67
2023/01/02 03:57:53;;;;;;;;;1.00;1.00;;;;;;;;5114335;28;8791;-67
2023/01/02 04:00:19;;;;;;;;;0.00;0.00;;;;;;;;5105840;27;8802;-67
2023/01/02 04:02:50;;;;;;;;;1.00;1.00;;;;;;;;5095367;27;8802;-67
2023/01/02 04:05:24;;;;;;;;;0.00;0.00;;;;;;;;5093992;28;8779;-67
2023/01/02 04:07:54;;;;;;;;;0.00;0.00;;;;;;;;5106612;27;8873;-67
2023/01/02 04:10:20;;;;;;;;;0.40;0.00;;;;;;;;5114108;28;8801;-67
2023/01/02 04:12:48;;;;;;;;;0.00;0.00;;;;;;;;5114322;28;8781;-67
2023/01/02 04:15:16;;;;;;;;;0.00;0.00;;;;;;;;5096785;27;8817;-67
2023/01/02 04:17:44;;;;;;;;;0.60;0.00;;;;;;;;5093851;28;8793;-67
2023/01/02 04:20:12;;;;;;;;;0.00;0.00;;;;;;;;5098501;27;8801;-67
2023/01/02 04:22:45;;;;;;;;;1.60;1.60;;;;;;;;5114099;28;8765;-66
2023/01/02 04:25:12;;;;;;;;;1.20;1.20;;;;;;;;5113877;27;8785;-67
2023/01/02 04:27:50;;;;;;;;;5.00;5.00;;;;;;;;5113154;27;8793;-67
2023/01/02 04:30:15;;;;;;;;;2.40;2.00;;;;;;;;5113825;28;8800;-67
2023/01/02 04:32:41;;;;;;;;;2.00;2.00;;;;;;;;5113853;28;8826;-67
2023/01/02 04:35:08;;;;;;;;;3.80;2.00;;;;;;;;5113959;28;8795;-67
2023/01/02 04:37:35;;;;;;;;;0.00;0.00;;;;;;;;5107723;28;9960;-66
2023/01/02 04:40:03;;;;;;;;;1.40;0.00;;;;;;;;5094178;28;8767;-67
2023/01/02 04:42:28;;;;;;;;;1.00;1.00;;;;;;;;5097336;27;8783;-67
2023/01/02 04:44:53;;;;;;;;;0.00;0.00;;;;;;;;5093266;28;8813;-67
2023/01/02 04:47:19;;;;;;;;;2.00;1.00;;;;;;;;5096766;27;8898;-67
2023/01/02 04:49:44;;;;;;;;;0.00;0.00;;;;;;;;5113457;28;9572;-67
2023/01/02 04:52:09;;;;;;;;;0.00;0.00;;;;;;;;5113639;28;8769;-67
2023/01/02 04:54:34;;;;;;;;;0.00;0.00;;;;;;;;5113871;28;8899;-66
2023/01/02 04:57:00;;;;;;;;;0.00;0.00;;;;;;;;5113285;27;8799;-67
2023/01/02 04:59:25;;;;;;;;;0.00;0.00;;;;;;;;5113724;28;8809;-66
2023/01/02 05:01:50;;;;;;;;;0.00;0.00;;;;;;;;5110563;27;8819;-67
2023/01/02 05:04:15;;;;;;;;;0.00;0.00;;;;;;;;5096320;27;8838;-66
2023/01/02 05:06:40;;;;;;;;;0.00;0.00;;;;;;;;5113082;28;8777;-67
2023/01/02 05:09:05;;;;;;;;;0.00;0.00;;;;;;;;5113252;28;8920;-67
2023/01/02 05:11:31;;;;;;;;;0.75;0.75;;;;;;;;5113507;28;8811;-67
2023/01/02 05:13:56;;;;;;;;;0.00;0.00;;;;;;;;5112117;28;8792;-67
2023/01/02 05:16:21;;;;;;;;;0.00;0.00;;;;;;;;5101906;27;8815;-67
2023/01/02 05:18:46;;;;;;;;;0.00;0.00;;;;;;;;5092916;28;8787;-66
2023/01/02 05:23:57;;;;;;;;;0.00;0.00;;;;;;;;5113078;28;8804;-66
2023/01/02 05:26:22;;;;;;;;;1.00;1.00;;;;;;;;5112986;28;8797;-66
2023/01/02 05:28:47;;;;;;;;;0.25;0.25;;;;;;;;5112796;28;8843;-66
2023/01/02 05:31:12;;;;;;;;;0.00;0.00;;;;;;;;5113207;28;8820;-67
2023/01/02 05:33:38;;;;;;;;;1.00;1.00;;;;;;;;5112840;28;8788;-67
2023/01/02 05:36:04;;;;;;;;;0.00;0.00;;;;;;;;5112186;27;8808;-67
2023/01/02 05:38:31;;;;;;;;;2.80;0.00;;;;;;;;5104550;27;9559;-67
2023/01/02 05:41:03;;;;;;;;;0.00;0.00;;;;;;;;5112915;28;8803;-67
2023/01/02 05:43:30;;;;;;;;;5.80;3.20;;;;;;;;5093192;28;8783;-66
2023/01/02 05:45:55;;;;;;;;;2.20;0.00;;;;;;;;5093362;27;8825;-67
2023/01/02 05:48:20;;;;;;;;;0.00;0.00;;;;;;;;5093825;27;8798;-66
2023/01/02 05:50:45;;;;;;;;;0.00;0.00;;;;;;;;5103951;27;8813;-66
2023/01/02 05:53:10;;;;;;;;;1.25;1.25;;;;;;;;5101576;27;8818;-66
2023/01/02 05:55:36;;;;;;;;;0.50;0.00;;;;;;;;5098818;27;8805;-66
2023/01/02 05:58:01;;;;;;;;;0.00;0.00;;;;;;;;5092022;28;8795;-67
2023/01/02 06:00:26;;;;;;;;;0.00;0.00;;;;;;;;5092219;28;8835;-66
2023/01/02 06:02:51;;;;;;;;;0.00;0.00;;;;;;;;5092279;28;8790;-67
2023/01/02 06:05:17;;;;;;;;;0.00;0.00;;;;;;;;5091874;27;8815;-67
2023/01/02 06:07:42;;;;;;;;;0.00;0.00;;;;;;;;5092104;28;9541;-66
2023/01/02 06:10:07;;;;;;;;;1.00;1.00;;;;;;;;5091984;28;8786;-67
2023/01/02 06:12:32;;;;;;;;;0.00;0.00;;;;;;;;5095274;27;8819;-66
2023/01/02 06:14:57;;;;;;;;;0.00;0.00;;;;;;;;5108629;27;8800;-66
2023/01/02 06:17:23;;;;;;;;;0.00;0.00;;;;;;;;5106515;28;8824;-66
2023/01/02 06:19:48;;;;;;;;;0.00;0.00;;;;;;;;5112442;28;8873;-67
2023/01/02 06:22:13;;;;;;;;;0.00;0.00;;;;;;;;5112197;28;8823;-66
2023/01/02 06:24:38;;;;;;;;;0.00;0.00;;;;;;;;5111923;28;8911;-67
2023/01/02 06:27:03;;;;;;;;;0.00;0.00;;;;;;;;5100980;27;8848;-66
2023/01/02 06:29:29;;;;;;;;;0.00;0.00;;;;;;;;5091345;28;8846;-66
2023/01/02 06:31:54;;;;;;;;;0.00;0.00;;;;;;;;5105289;27;8805;-66
2023/01/02 06:34:19;;;;;;;;;0.00;0.00;;;;;;;;5094637;28;8818;-66
2023/01/02 06:36:44;;;;;;;;;1.50;0.00;;;;;;;;5092001;27;8981;-66
2023/01/02 06:39:09;;;;;;;;;0.00;0.00;;;;;;;;5092325;27;8795;-66
2023/01/02 06:41:35;;;;;;;;;0.00;0.00;;;;;;;;5112063;28;8753;-66
2023/01/02 06:44:00;;;;;;;;;0.00;0.00;;;;;;;;5111833;28;9579;-66
2023/01/02 06:46:25;;;;;;;;;0.25;0.25;;;;;;;;5111915;27;8780;-66
2023/01/02 06:48:50;;;;;;;;;1.00;0.00;;;;;;;;5108883;28;8827;-66
2023/01/02 06:51:17;;;;;;;;;0.00;0.00;;;;;;;;5111987;28;8777;-66
2023/01/02 06:53:43;;;;;;;;;0.00;0.00;;;;;;;;5111849;28;8830;-65
2023/01/02 06:56:08;;;;;;;;;2.75;0.75;;;;;;;;5093813;27;8790;-66
2023/01/02 06:58:35;;;;;;;;;1.00;1.00;;;;;;;;5091079;28;8767;-65
2023/01/02 07:01:01;;;;;;;;;1.20;1.20;;;;;;;;5091663;27;11414;-66
2023/01/02 07:03:27;;;;;;;;;4.40;4.40;;;;;;;;5091218;28;8779;-66
2023/01/02 07:05:52;;;;;;;;;3.75;1.75;;;;;;;;5104814;27;8812;-66
2023/01/02 07:08:17;;;;;;;;;7.25;6.75;;;;;;;;5111651;28;9560;-66
2023/01/02 07:10:42;;;;;;;;;5.25;5.00;;;;;;;;5105549;27;8822;-66
2023/01/02 07:13:07;;;;;;;;;3.00;2.00;;;;;;;;5107294;27;8781;-66
2023/01/02 07:15:33;;;;;;;;;2.25;2.25;;;;;;;;5099224;27;8903;-66
2023/01/02 07:17:58;;;;;;;;;1.25;1.00;;;;;;;;5107055;27;8788;-66
2023/01/02 07:20:23;;;;;;;;;1.00;1.00;;;;;;;;5093092;27;8786;-66
2023/01/02 07:22:50;;;;;;;;;2.00;2.00;;;;;;;;5090985;27;8791;-66
2023/01/02 07:25:15;;;;;;;;;3.00;1.00;;;;;;;;5110905;28;9564;-66
2023/01/02 07:27:40;;;;;;;;;3.00;1.00;;;;;;;;5102377;27;8846;-66
2023/01/02 07:30:05;;;;;;;;;9.33;9.33;;;;;;;;5103616;27;8803;-66
2023/01/02 07:32:31;;;;;;;;;1.50;1.00;;;;;;;;5091616;27;8922;-66
2023/01/02 07:34:56;;;;;;;;;2.00;1.00;;;;;;;;5102639;27;8831;-66
2023/01/02 07:37:21;;;;;;;;;1.75;1.75;;;;;;;;5103968;27;8798;-66
2023/01/02 07:39:46;;;;;;;;;1.00;1.00;;;;;;;;5093943;27;8821;-66
2023/01/02 07:42:11;;;;;;;;;1.75;0.00;;;;;;;;5094247;28;8762;-66
2023/01/02 07:44:37;;;;;;;;;22.33;22.33;;;;;;;;5094119;28;8767;-66
2023/01/02 07:47:02;;;;;;;;;8.67;5.67;;;;;;;;5094123;28;8869;-66
2023/01/02 07:49:27;;;;;;;;;2.25;2.25;;;;;;;;5094076;28;8814;-66
2023/01/02 07:51:53;;;;;;;;;0.00;0.00;;;;;;;;5093958;28;8889;-66
2023/01/02 07:54:18;;;;;;;;;2.00;1.00;;;;;;;;5093989;28;8979;-65
2023/01/02 07:56:43;;;;;;;;;1.00;1.00;;;;;;;;5094292;28;9486;-66
2023/01/02 07:59:08;;;;;;;;;2.00;2.00;;;;;;;;5093944;28;8795;-65
2023/01/02 08:01:33;;;;;;;;;1.50;1.00;;;;;;;;5093988;28;8790;-65
2023/01/02 08:03:59;;;;;;;;;1.00;1.00;;;;;;;;5093882;28;8807;-66
2023/01/02 08:06:24;;;;;;;;;1.00;0.00;;;;;;;;5093970;28;8787;-65
2023/01/02 08:08:49;;;;;;;;;1.00;0.75;;;;;;;;5093829;28;8805;-66
2023/01/02 08:11:16;;;;;;;;;1.00;1.00;;;;;;;;5093690;28;9252;-65
2023/01/02 08:13:41;;;;;;;;;1.00;1.00;;;;;;;;5093867;28;8779;-65
2023/01/02 08:16:08;;;;;;;;;2.75;0.75;;;;;;;;5093561;28;8786;-65
2023/01/02 08:18:33;;;;;;;;;4.40;3.00;;;;;;;;5093735;28;8874;-65
2023/01/02 08:20:58;;;;;;;;;1.00;1.00;;;;;;;;5093720;28;8917;-66
2023/01/02 08:23:24;;;;;;;;;3.25;1.00;;;;;;;;5093369;28;8811;-65
2023/01/02 08:25:49;;;;;;;;;2.25;2.00;;;;;;;;5093709;28;8779;-66
2023/01/02 08:28:14;;;;;;;;;1.00;1.00;;;;;;;;5093479;28;8815;-65
2023/01/02 08:30:40;;;;;;;;;1.75;1.75;;;;;;;;5093174;28;8831;-66
2023/01/02 08:33:05;;;;;;;;;1.00;1.00;;;;;;;;5093622;28;8779;-65
2023/01/02 08:35:30;;;;;;;;;2.50;1.00;;;;;;;;5093355;28;8755;-65
2023/01/02 08:37:55;;;;;;;;;2.00;1.00;;;;;;;;5093295;28;8893;-66
2023/01/02 08:40:21;;;;;;;;;0.00;0.00;;;;;;;;5093331;28;8813;-66
2023/01/02 08:42:46;;;;;;;;;0.00;0.00;;;;;;;;5093357;28;8767;-66
2023/01/02 08:45:11;;;;;;;;;0.00;0.00;;;;;;;;5093121;28;8844;-65
2023/01/02 08:47:36;;;;;;;;;0.00;0.00;;;;;;;;5093225;28;8825;-66
2023/01/02 08:50:01;;;;;;;;;0.00;0.00;;;;;;;;5093294;28;9554;-67
2023/01/02 08:52:27;;;;;;;;;0.00;0.00;;;;;;;;5093178;28;8767;-67
2023/01/02 08:54:52;;;;;;;;;0.00;0.00;;;;;;;;5093176;28;8877;-66
2023/01/02 08:57:17;;;;;;;;;0.00;0.00;;;;;;;;5093031;28;9567;-66
2023/01/02 08:59:42;;;;;;;;;0.00;0.00;;;;;;;;5092799;28;8813;-66
2023/01/02 09:02:11;;;;;;;;;1.00;0.00;;;;;;;;5093160;28;8755;-65
2023/01/02 09:04:36;;;;;;;;;0.00;0.00;;;;;;;;5093200;28;8755;-66
2023/01/02 09:07:02;;;;;;;;;0.00;0.00;;;;;;;;5093323;28;8763;-66
2023/01/02 09:09:27;;;;;;;;;0.00;0.00;;;;;;;;5092812;28;8909;-66
2023/01/02 09:11:52;;;;;;;;;0.00;0.00;;;;;;;;5092768;28;8763;-66
2023/01/02 09:14:18;;;;;;;;;1.00;0.00;;;;;;;;5092794;28;8787;-65
2023/01/02 09:16:43;;;;;;;;;1.00;1.00;;;;;;;;5092729;28;8763;-66
2023/01/02 09:19:09;;;;;;;;;1.00;1.00;;;;;;;;5092699;28;8809;-65
2023/01/02 09:21:34;;;;;;;;;2.00;1.25;;;;;;;;5074410;28;8803;-66
2023/01/02 09:23:59;;;;;;;;;7.00;7.00;;;;;;;;5092485;28;8835;-65
2023/01/02 09:26:25;;;;;;;;;9.25;7.25;;;;;;;;5092726;28;8868;-66
2023/01/02 09:28:50;;;;;;;;;2.75;2.75;;;;;;;;5092155;28;8844;-66
2023/01/02 09:31:16;;;;;;;;;1.75;1.75;;;;;;;;5092851;28;8786;-66
2023/01/02 09:33:41;;;;;;;;;1.00;1.00;;;;;;;;5106978;28;8907;-66
2023/01/02 09:36:07;;;;;;;;;1.00;1.00;;;;;;;;5112070;28;8883;-66
2023/01/02 09:38:33;;;;;;;;;4.40;3.60;;;;;;;;5112048;28;8784;-66
2023/01/02 09:40:59;;;;;;;;;3.00;3.00;;;;;;;;5112275;28;8800;-65
2023/01/02 09:43:37;;;;;;;;;7.40;6.00;;;;;;;;5112271;28;8757;-66
2023/01/02 09:46:04;;;;;;;;;4.00;3.00;;;;;;;;5112002;27;8842;-66
2023/01/02 09:48:31;;;;;;;;;3.40;3.20;;;;;;;;5112074;28;8777;-66
2023/01/02 09:50:57;;;;;;;;;4.20;4.00;;;;;;;;5112450;28;8777;-68
2023/01/02 09:53:22;;;;;;;;;5.00;5.00;;;;;;;;5112677;28;8827;-68
2023/01/02 09:55:53;;;;;;;;;7.75;4.00;;;;;;;;5112465;27;8749;-67
2023/01/02 09:58:31;;;;;;;;;6.00;6.00;;;;;;;;5112619;28;9710;-66
2023/01/02 10:00:58;;;;;;;;;11.60;7.40;;;;;;;;5111853;28;8772;-64
2023/01/02 10:03:46;;;;;;;;;4.60;3.00;;;;;;;;5111107;27;8753;-66
2023/01/02 10:06:15;;;;;;;;;4.80;3.00;;;;;;;;5064988;28;8979;-65
2023/01/02 10:08:52;;;;;;;;;5.20;3.80;;;;;;;;5069605;28;8763;-63
2023/01/02 10:11:33;;;;;;;;;4.80;3.40;;;;;;;;5069535;28;8801;-65
2023/01/02 10:14:10;;;;;;;;;3.60;3.40;;;;;;;;5069735;28;8828;-63
2023/01/02 10:16:41;;;;;;;;;4.80;4.00;;;;;;;;5069250;28;8767;-63
2023/01/02 10:19:13;;;;;;;;;4.00;1.80;;;;;;;;5069235;28;8775;-64
2023/01/02 10:21:39;;;;;;;;;3.00;2.00;;;;;;;;5069532;28;8763;-64
2023/01/02 10:24:04;;;;;;;;;3.00;1.00;;;;;;;;5069350;28;8788;-63
2023/01/02 10:26:36;;;;;;;;;3.50;2.00;;;;;;;;5069256;28;8828;-66
2023/01/02 10:29:20;;;;;;;;;1.00;1.00;;;;;;;;5069196;28;8802;-66
2023/01/02 10:31:50;;;;;;;;;1.20;1.20;;;;;;;;5069175;28;8774;-65
2023/01/02 10:34:20;;;;;;;;;1.80;1.00;;;;;;;;5069191;28;8747;-64
2023/01/02 10:36:45;;;;;;;;;1.20;1.20;;;;;;;;5068979;28;8920;-65
2023/01/02 10:39:12;;;;;;;;;2.50;2.00;;;;;;;;5069407;28;8782;-65
2023/01/02 10:41:38;;;;;;;;;1.00;1.00;;;;;;;;5069085;28;8771;-66
2023/01/02 10:44:07;;;;;;;;;2.40;2.20;;;;;;;;5088486;28;8806;-65
2023/01/02 10:46:36;;;;;;;;;2.40;2.40;;;;;;;;5091307;28;8794;-66
2023/01/02 10:49:06;;;;;;;;;1.00;1.00;;;;;;;;5091377;28;8782;-65
2023/01/02 10:51:31;;;;;;;;;4.00;1.40;;;;;;;;5091338;28;8794;-64
2023/01/02 10:54:07;;;;;;;;;12.67;11.67;;;;;;;;5091196;28;8783;-65
2023/01/02 10:56:37;;;;;;;;;3.40;1.60;;;;;;;;5091309;28;8858;-65
2023/01/02 10:59:02;;;;;;;;;2.20;1.80;;;;;;;;5091499;28;8784;-65
2023/01/02 11:01:28;;;;;;;;;2.75;2.75;;;;;;;;5091108;28;8782;-66
2023/01/02 11:03:56;;;;;;;;;3.00;3.00;;;;;;;;5091231;28;8800;-64
2023/01/02 11:06:23;;;;;;;;;5.80;4.40;;;;;;;;5091352;28;8877;-65
2023/01/02 11:08:55;;;;;;;;;7.00;7.00;;;;;;;;5091052;28;8787;-65
2023/01/02 11:11:22;;;;;;;;;1.80;1.80;;;;;;;;5091576;28;8846;-65
2023/01/02 11:13:48;;;;;;;;;4.60;4.00;;;;;;;;5094899;28;8873;-65
2023/01/02 11:16:15;;;;;;;;;4.60;4.60;;;;;;;;5094396;28;8759;-65
2023/01/02 11:18:47;;;;;;;;;8.60;7.60;;;;;;;;5094703;28;8747;-64
2023/01/02 11:21:12;;;;;;;;;2.20;2.20;;;;;;;;5094728;28;8821;-66
2023/01/02 11:23:43;;;;;;;;;14.67;13.67;;;;;;;;5094594;28;8787;-65
2023/01/02 11:26:18;;;;;;;;;5.00;2.00;;;;;;;;5094570;28;8767;-66
2023/01/02 11:28:43;;;;;;;;;4.80;2.80;;;;;;;;5094375;28;8817;-65
2023/01/02 11:31:10;;;;;;;;;1.00;0.00;;;;;;;;5094200;28;8803;-65
2023/01/02 11:33:36;;;;;;;;;4.00;1.00;;;;;;;;5094739;28;8755;-65
2023/01/02 11:36:03;;;;;;;;;0.00;0.00;;;;;;;;5094398;28;8799;-67
2023/01/02 11:38:44;;;;;;;;;0.00;0.00;;;;;;;;5094222;28;8779;-65
2023/01/02 11:44:32;;;;;;;;;0.00;0.00;;;;;;;;5094302;28;8759;-65
2023/01/02 11:46:58;;;;;;;;;2.20;2.20;;;;;;;;5093451;28;8783;-64
2023/01/02 11:49:25;;;;;;;;;6.50;6.50;;;;;;;;5094118;28;8791;-65
2023/01/02 11:52:03;;;;;;;;;0.20;0.20;;;;;;;;5094023;28;10455;-65
2023/01/02 11:54:52;;;;;;;;;1.00;1.00;;;;;;;;5075901;28;9686;-65
2023/01/02 11:57:33;;;;;;;;;1.00;1.00;;;;;;;;5093479;28;9620;-65
2023/01/02 12:00:00;;;;;;;;;0.00;0.00;;;;;;;;5094070;28;8796;-65
2023/01/02 12:02:29;;;;;;;;;0.00;0.00;;;;;;;;5094008;28;9543;-65
2023/01/02 12:04:55;;;;;;;;;3.20;2.00;;;;;;;;5093931;28;8765;-65
2023/01/02 12:07:33;;;;;;;;;0.00;0.00;;;;;;;;5094007;28;8783;-66
2023/01/02 12:10:01;;;;;;;;;1.00;1.00;;;;;;;;5075724;28;8886;-67
2023/01/02 12:12:29;;;;;;;;;0.60;0.00;;;;;;;;5093699;28;8890;-67
2023/01/02 12:15:07;;;;;;;;;0.00;0.00;;;;;;;;5093815;28;8801;-67
2023/01/02 12:17:41;;;;;;;;;0.00;0.00;;;;;;;;5093621;28;8802;-65
2023/01/02 12:20:09;;;;;;;;;0.00;0.00;;;;;;;;5093874;28;8775;-66
2023/01/02 12:22:53;;;;;;;;;1.00;0.00;;;;;;;;5093350;28;8755;-66
2023/01/02 12:25:21;;;;;;;;;0.00;0.00;;;;;;;;5093612;28;8901;-65
2023/01/02 12:27:55;;;;;;;;;1.40;0.00;;;;;;;;5093510;28;8771;-66
2023/01/02 12:30:21;;;;;;;;;0.00;0.00;;;;;;;;5093545;28;8799;-66
2023/01/02 12:32:49;;;;;;;;;0.00;0.00;;;;;;;;5093370;28;9587;-66
2023/01/02 12:35:14;;;;;;;;;0.00;0.00;;;;;;;;5093687;28;8779;-66
2023/01/02 12:37:39;;;;;;;;;9.50;6.00;;;;;;;;5093464;28;8815;-65
2023/01/02 12:40:04;;;;;;;;;6.00;4.00;;;;;;;;5093253;28;8809;-66
2023/01/02 12:42:49;;;;;;;;;3.25;3.25;;;;;;;;5093483;28;9554;-66
2023/01/02 12:45:34;;;;;;;;;1.40;1.00;;;;;;;;5093388;28;8771;-65
2023/01/02 12:47:59;;;;;;;;;2.20;2.20;;;;;;;;5030625;28;8840;-65
2023/01/02 12:50:32;;;;;;;;;2.75;2.75;;;;;;;;5030527;28;8810;-66
2023/01/02 12:53:06;;;;;;;;;3.60;3.40;;;;;;;;5030760;28;8999;-66
2023/01/02 12:55:37;;;;;;;;;4.00;3.00;;;;;;;;5030668;28;8777;-67
2023/01/02 12:58:38;;;;;;;;;2.00;2.00;;;;;;;;5030613;28;8778;-67
2023/01/02 13:01:09;;;;;;;;;2.00;2.00;;;;;;;;4991160;28;8794;-66
2023/01/02 13:03:40;;;;;;;;;2.00;2.00;;;;;;;;4990891;28;8778;-66
2023/01/02 13:06:05;;;;;;;;;1.60;1.60;;;;;;;;4991196;28;8785;-67
2023/01/02 13:08:43;;;;;;;;;1.75;1.75;;;;;;;;4990983;28;8793;-66
2023/01/02 13:11:09;;;;;;;;;1.00;1.00;;;;;;;;4990867;28;8924;-66
2023/01/02 13:13:36;;;;;;;;;2.40;1.80;;;;;;;;4990853;28;8802;-66
2023/01/02 13:16:05;;;;;;;;;3.60;2.60;;;;;;;;4990953;28;8888;-66
2023/01/02 13:18:30;;;;;;;;;3.00;2.80;;;;;;;;4990706;28;8805;-66
2023/01/02 13:21:04;;;;;;;;;3.75;3.00;;;;;;;;4990893;28;8782;-65
2023/01/02 13:23:29;;;;;;;;;2.00;2.00;;;;;;;;4990968;28;8796;-66
2023/01/02 13:25:57;;;;;;;;;4.50;3.25;;;;;;;;5040726;28;8779;-66
2023/01/02 13:28:22;;;;;;;;;2.40;2.40;;;;;;;;5050083;28;8859;-65
2023/01/02 13:30:47;;;;;;;;;2.25;2.25;;;;;;;;5049865;28;9642;-65
2023/01/02 13:33:21;;;;;;;;;3.50;2.75;;;;;;;;5049847;28;8892;-65
2023/01/02 13:35:46;;;;;;;;;5.60;3.00;;;;;;;;5083613;28;8795;-66
2023/01/02 13:38:13;;;;;;;;;4.50;3.50;;;;;;;;5092384;28;8816;-66
2023/01/02 13:40:39;;;;;;;;;5.40;2.00;;;;;;;;5092444;28;8774;-65
2023/01/02 13:43:05;;;;;;;;;0.50;0.50;;;;;;;;5092327;28;8779;-65
2023/01/02 13:45:42;;;;;;;;;2.00;1.80;;;;;;;;5092429;28;9238;-65
2023/01/02 13:48:20;;;;;;;;;1.80;1.00;;;;;;;;5092235;28;8793;-65
2023/01/02 13:50:45;;;;;;;;;4.20;0.20;;;;;;;;5092197;28;8896;-65
2023/01/02 13:53:10;;;;;;;;;1.00;1.00;;;;;;;;5092233;28;8795;-64
2023/01/02 13:55:38;;;;;;;;;0.00;0.00;;;;;;;;5092518;28;8770;-66
2023/01/02 13:58:19;;;;;;;;;0.00;0.00;;;;;;;;5092346;28;8767;-65
2023/01/02 14:00:51;;;;;;;;;0.80;0.00;;;;;;;;5092100;28;8809;-65
2023/01/02 14:03:19;;;;;;;;;0.00;0.00;;;;;;;;5091858;28;8743;-65
2023/01/02 14:06:11;;;;;;;;;4.80;3.80;;;;;;;;5092198;28;8767;-65
2023/01/02 14:08:41;;;;;;;;;0.00;0.00;;;;;;;;5068237;28;8806;-65
2023/01/02 14:11:08;;;;;;;;;2.80;1.40;;;;;;;;5091971;28;8913;-64
2023/01/02 14:13:42;;;;;;;;;2.00;0.00;;;;;;;;5091826;28;8763;-66
2023/01/02 14:16:26;;;;;;;;;0.40;0.00;;;;;;;;5092088;28;8775;-66
2023/01/02 14:19:10;;;;;;;;;3.00;1.40;;;;;;;;5091804;28;9609;-64
2023/01/02 14:21:36;;;;;;;;;0.60;0.00;;;;;;;;5091887;28;9499;-64
2023/01/02 14:24:02;;;;;;;;;3.40;2.20;;;;;;;;5091689;28;8759;-65
2023/01/02 14:26:31;;;;;;;;;1.25;1.25;;;;;;;;5091717;28;8806;-64
2023/01/02 14:28:58;;;;;;;;;4.00;2.00;;;;;;;;5091708;28;8899;-64
2023/01/02 14:31:31;;;;;;;;;2.80;1.80;;;;;;;;5091577;28;8767;-64
2023/01/02 14:33:56;;;;;;;;;2.00;1.80;;;;;;;;5091501;28;9597;-64
2023/01/02 14:36:33;;;;;;;;;3.25;2.00;;;;;;;;5091811;28;8759;-64
2023/01/02 14:38:58;;;;;;;;;1.20;1.20;;;;;;;;5091588;28;8847;-65
2023/01/02 14:44:31;;;;;;;;;0.60;0.60;;;;;;;;5029096;28;8885;-65
2023/01/02 14:46:57;;;;;;;;;1.60;0.00;;;;;;;;5031969;28;8773;-65
2023/01/02 14:49:24;;;;;;;;;0.00;0.00;;;;;;;;5032403;28;8805;-64
2023/01/02 14:52:00;;;;;;;;;2.00;0.20;;;;;;;;5032428;28;8808;-64
2023/01/02 14:54:30;;;;;;;;;0.60;0.60;;;;;;;;5032626;28;8761;-64
2023/01/02 14:56:59;;;;;;;;;1.00;0.40;;;;;;;;5032673;28;9494;-64
2023/01/02 14:59:26;;;;;;;;;15.25;15.25;;;;;;;;5032368;28;8805;-64
2023/01/02 15:01:55;;;;;;;;;3.40;0.00;;;;;;;;5032553;28;8762;-64
2023/01/02 15:04:37;;;;;;;;;3.80;1.00;;;;;;;;5034404;28;9534;-65
2023/01/02 15:07:18;;;;;;;;;4.80;3.80;;;;;;;;5044618;28;8801;-65
2023/01/02 15:09:46;;;;;;;;;4.60;1.00;;;;;;;;5052104;28;8794;-65
2023/01/02 15:15:07;;;;;;;;;1.00;1.00;;;;;;;;5052171;28;8783;-65